createdAt,value
2018-07-24T00:00:22.616Z,98688.00
2018-07-24T00:02:59.275Z,98684.00
2018-07-24T00:05:35.124Z,98685.00
2018-07-24T00:08:15.896Z,98682.00
2018-07-24T00:10:50.506Z,98681.00
2018-07-24T00:13:25.285Z,98678.00
2018-07-24T00:15:57.968Z,98679.00
2018-07-24T00:18:28.908Z,98677.00
2018-07-24T00:21:01.503Z,98677.00
2018-07-24T00:23:33.575Z,98679.00
2018-07-24T00:26:06.132Z,98671.00
2018-07-24T00:28:42.955Z,98674.00
2018-07-24T00:31:18.263Z,98674.00
2018-07-24T00:33:57.481Z,98668.00
2018-07-24T00:36:32.760Z,98663.00
2018-07-24T00:39:06.545Z,98662.00
2018-07-24T00:41:39.428Z,98656.00
2018-07-24T00:44:11.084Z,98657.00
2018-07-24T00:46:44.788Z,98652.00
2018-07-24T00:49:16.097Z,98651.00
2018-07-24T00:51:46.990Z,98652.00
2018-07-24T00:54:17.782Z,98652.00
2018-07-24T00:56:48.412Z,98648.00
2018-07-24T00:59:20.065Z,98642.00
2018-07-24T01:01:51.424Z,98646.00
2018-07-24T01:04:22.701Z,98645.00
2018-07-24T01:06:52.372Z,98643.00
2018-07-24T01:09:23.916Z,98638.00
2018-07-24T01:11:53.740Z,98639.00
2018-07-24T01:14:25.645Z,98634.00
2018-07-24T01:16:56.116Z,98635.00
2018-07-24T01:19:26.324Z,98631.00
2018-07-24T01:21:59.835Z,98630.00
2018-07-24T01:24:30.652Z,98630.00
2018-07-24T01:27:01.864Z,98632.00
2018-07-24T01:29:31.213Z,98632.00
2018-07-24T01:32:02.824Z,98626.00
2018-07-24T01:34:33.461Z,98627.00
2018-07-24T01:37:05.106Z,98622.00
2018-07-24T01:39:34.208Z,98622.00
2018-07-24T01:42:04.990Z,98617.00
2018-07-24T01:44:36.496Z,98615.00
2018-07-24T01:47:06.536Z,98613.00
2018-07-24T01:49:40.038Z,98609.00
2018-07-24T01:52:10.284Z,98606.00
2018-07-24T01:54:40.691Z,98610.00
2018-07-24T01:57:14.994Z,98604.00
2018-07-24T01:59:50.484Z,98605.00
2018-07-24T02:02:21.612Z,98606.00
2018-07-24T02:04:53.487Z,98604.00
2018-07-24T02:07:27.043Z,98608.00
2018-07-24T02:09:59.868Z,98603.00
2018-07-24T02:12:37.389Z,98602.00
2018-07-24T02:15:15.900Z,98606.00
2018-07-24T02:20:38.221Z,98607.00
2018-07-24T02:23:20.157Z,98608.00
2018-07-24T02:25:53.035Z,98612.00
2018-07-24T02:36:31.453Z,98599.00
2018-07-24T02:39:13.509Z,98598.00
2018-07-24T02:41:45.770Z,98600.00
2018-07-24T02:44:27.107Z,98602.00
2018-07-24T02:47:00.820Z,98600.00
2018-07-24T02:49:37.675Z,98602.00
2018-07-24T02:52:14.753Z,98600.00
2018-07-24T02:54:47.474Z,98599.00
2018-07-24T02:57:21.260Z,98600.00
2018-07-24T02:59:55.517Z,98598.00
2018-07-24T03:02:27.033Z,98594.00
2018-07-24T03:04:57.526Z,98596.00
2018-07-24T03:07:29.360Z,98597.00
2018-07-24T03:09:59.089Z,98598.00
2018-07-24T03:12:28.217Z,98602.00
2018-07-24T03:14:57.429Z,98596.00
2018-07-24T03:17:26.799Z,98599.00
2018-07-24T03:19:55.920Z,98599.00
2018-07-24T03:22:25.103Z,98597.00
2018-07-24T03:24:54.303Z,98597.00
2018-07-24T03:27:23.657Z,98603.00
2018-07-24T03:29:53.507Z,98602.00
2018-07-24T03:32:23.248Z,98600.00
2018-07-24T03:34:52.384Z,98601.00
2018-07-24T03:37:22.058Z,98600.00
2018-07-24T03:39:53.197Z,98595.00
2018-07-24T03:42:23.012Z,98594.00
2018-07-24T03:44:52.695Z,98596.00
2018-07-24T03:47:22.724Z,98598.00
2018-07-24T03:49:54.681Z,98595.00
2018-07-24T03:52:25.162Z,98594.00
2018-07-24T03:54:54.641Z,98596.00
2018-07-24T03:57:24.684Z,98595.00
2018-07-24T03:59:54.854Z,98596.00
2018-07-24T04:02:26.839Z,98600.00
2018-07-24T04:04:55.948Z,98602.00
2018-07-24T04:07:27.894Z,98595.00
2018-07-24T04:09:58.538Z,98598.00
2018-07-24T04:12:30.276Z,98597.00
2018-07-24T04:15:00.278Z,98596.00
2018-07-24T04:17:30.349Z,98595.00
2018-07-24T04:20:00.152Z,98589.00
2018-07-24T04:22:29.776Z,98590.00
2018-07-24T04:24:58.752Z,98589.00
2018-07-24T04:27:30.125Z,98592.00
2018-07-24T04:30:08.601Z,98595.00
2018-07-24T04:32:40.544Z,98592.00
2018-07-24T04:35:12.499Z,98592.00
2018-07-24T04:37:45.660Z,98591.00
2018-07-24T04:40:14.667Z,98593.00
2018-07-24T04:42:50.276Z,98594.00
2018-07-24T04:45:21.932Z,98595.00
2018-07-24T04:47:56.340Z,98589.00
2018-07-24T04:50:26.693Z,98589.00
2018-07-24T04:52:56.857Z,98589.00
2018-07-24T04:55:33.130Z,98592.00
2018-07-24T04:58:03.906Z,98584.00
2018-07-24T05:00:39.500Z,98590.00
2018-07-24T05:03:09.920Z,98590.00
2018-07-24T05:05:40.412Z,98595.00
2018-07-24T05:08:16.370Z,98597.00
2018-07-24T05:10:49.630Z,98594.00
2018-07-24T05:13:20.308Z,98593.00
2018-07-24T05:15:49.890Z,98593.00
2018-07-24T05:18:20.806Z,98593.00
2018-07-24T05:20:53.512Z,98594.00
2018-07-24T05:23:26.657Z,98596.00
2018-07-24T05:26:02.354Z,98600.00
2018-07-24T05:28:37.752Z,98592.00
2018-07-24T05:31:08.301Z,98590.00
2018-07-24T05:33:39.252Z,98595.00
2018-07-24T05:36:11.429Z,98595.00
2018-07-24T05:38:42.524Z,98590.00
2018-07-24T05:41:12.772Z,98589.00
2018-07-24T05:43:43.264Z,98588.00
2018-07-24T05:46:17.724Z,98588.00
2018-07-24T05:48:51.278Z,98588.00
2018-07-24T05:51:22.676Z,98585.00
2018-07-24T05:53:53.809Z,98586.00
2018-07-24T05:56:30.187Z,98584.00
2018-07-24T05:59:00.394Z,98582.00
2018-07-24T06:01:31.592Z,98586.00
2018-07-24T06:04:02.605Z,98587.00
2018-07-24T06:06:35.232Z,98582.00
2018-07-24T06:09:09.932Z,98584.00
2018-07-24T06:11:42.161Z,98580.00
2018-07-24T06:14:12.633Z,98580.00
2018-07-24T06:16:44.363Z,98578.00
2018-07-24T06:19:15.408Z,98580.00
2018-07-24T06:21:49.666Z,98578.00
2018-07-24T06:24:27.514Z,98578.00
2018-07-24T06:28:34.760Z,98578.00
2018-07-24T06:31:05.045Z,98579.00
2018-07-24T06:33:37.096Z,98576.00
2018-07-24T06:36:08.367Z,98575.00
2018-07-24T06:38:39.353Z,98568.00
2018-07-24T06:41:11.671Z,98568.00
2018-07-24T06:43:43.500Z,98561.00
2018-07-24T06:46:23.684Z,98558.00
2018-07-24T06:48:55.803Z,98555.00
2018-07-24T06:51:28.481Z,98554.00
2018-07-24T06:54:04.285Z,98553.00
2018-07-24T06:56:35.831Z,98546.00
2018-07-24T06:59:09.977Z,98546.00
2018-07-24T07:01:39.411Z,98541.00
2018-07-24T07:04:12.035Z,98541.00
2018-07-24T07:06:42.888Z,98540.00
2018-07-24T07:09:13.949Z,98540.00
2018-07-24T07:11:44.144Z,98542.00
2018-07-24T07:14:13.745Z,98537.00
2018-07-24T07:16:42.952Z,98532.00
2018-07-24T07:19:13.175Z,98535.00
2018-07-24T07:21:43.161Z,98530.00
2018-07-24T07:24:12.619Z,98531.00
2018-07-24T07:26:42.240Z,98529.00
2018-07-24T07:29:12.119Z,98522.00
2018-07-24T07:31:42.200Z,98516.00
2018-07-24T07:34:13.888Z,98515.00
2018-07-24T07:36:50.126Z,98507.00
2018-07-24T07:45:03.293Z,98475.00
2018-07-24T07:47:35.158Z,98468.00
2018-07-24T07:50:07.357Z,98464.00
2018-07-24T07:52:37.157Z,98464.00
2018-07-24T07:55:08.244Z,98460.00
2018-07-24T07:57:39.819Z,98454.00
2018-07-24T08:00:16.516Z,98454.00
2018-07-24T08:02:51.947Z,98456.00
2018-07-24T08:05:28.820Z,98441.00
2018-07-24T08:08:02.520Z,98442.00
2018-07-24T08:10:37.554Z,98459.00
2018-07-24T08:13:08.631Z,98452.00
2018-07-24T08:15:40.260Z,98437.00
2018-07-24T08:18:11.048Z,98444.00
2018-07-24T08:20:45.928Z,98453.00
2018-07-24T08:23:16.245Z,98434.00
2018-07-24T08:25:46.089Z,98454.00
2018-07-24T08:28:17.393Z,98451.00
2018-07-24T08:30:48.456Z,98446.00
2018-07-24T08:33:21.646Z,98453.00
2018-07-24T08:35:53.136Z,98455.00
2018-07-24T08:38:23.704Z,98452.00
2018-07-24T08:40:54.866Z,98433.00
2018-07-24T08:43:25.002Z,98425.00
2018-07-24T08:45:57.989Z,98436.00
2018-07-24T08:48:33.257Z,98430.00
2018-07-24T08:51:06.215Z,98431.00
2018-07-24T08:53:41.569Z,98445.00
2018-07-24T08:56:10.544Z,98437.00
2018-07-24T08:58:42.781Z,98425.00
2018-07-24T09:01:12.872Z,98425.00
2018-07-24T09:03:43.592Z,98436.00
2018-07-24T09:06:13.986Z,98432.00
2018-07-24T09:08:45.234Z,98419.00
2018-07-24T09:11:15.432Z,98418.00
2018-07-24T09:13:45.733Z,98412.00
2018-07-24T09:16:19.593Z,98407.00
2018-07-24T09:18:49.968Z,98419.00
2018-07-24T09:21:21.065Z,98411.00
2018-07-24T09:23:56.235Z,98416.00
2018-07-24T09:26:27.997Z,98419.00
2018-07-24T09:29:00.118Z,98422.00
2018-07-24T09:31:30.400Z,98411.00
2018-07-24T09:34:06.812Z,98416.00
2018-07-24T09:36:39.355Z,98417.00
2018-07-24T09:39:10.541Z,98412.00
2018-07-24T09:41:41.060Z,98407.00
2018-07-24T09:44:11.638Z,98409.00
2018-07-24T09:46:44.642Z,98410.00
2018-07-24T09:49:14.800Z,98412.00
2018-07-24T09:51:47.287Z,98405.00
2018-07-24T09:54:17.804Z,98408.00
2018-07-24T09:56:48.295Z,98396.00
2018-07-24T09:59:19.396Z,98407.00
2018-07-24T10:01:54.015Z,98415.00
2018-07-24T10:04:26.480Z,98418.00
2018-07-24T10:06:57.422Z,98407.00
2018-07-24T10:09:30.917Z,98419.00
2018-07-24T10:12:02.268Z,98422.00
2018-07-24T10:14:37.840Z,98416.00
2018-07-24T10:17:10.041Z,98402.00
2018-07-24T10:19:45.717Z,98390.00
2018-07-24T10:22:18.270Z,98385.00
2018-07-24T10:24:47.845Z,98390.00
2018-07-24T10:27:20.497Z,98379.00
2018-07-24T10:29:50.356Z,98394.00
2018-07-24T10:32:20.766Z,98387.00
2018-07-24T10:34:50.321Z,98372.00
2018-07-24T10:37:21.350Z,98380.00
2018-07-24T10:39:52.139Z,98378.00
2018-07-24T10:42:21.701Z,98376.00
2018-07-24T10:44:53.891Z,98370.00
2018-07-24T10:47:25.471Z,98392.00
2018-07-24T10:49:58.165Z,98385.00
2018-07-24T10:52:30.197Z,98371.00
2018-07-24T10:55:01.252Z,98372.00
2018-07-24T10:57:36.545Z,98366.00
2018-07-24T11:00:09.065Z,98366.00
2018-07-24T11:02:39.579Z,98357.00
2018-07-24T11:05:10.175Z,98355.00
2018-07-24T11:07:39.685Z,98349.00
2018-07-24T11:10:10.480Z,98344.00
2018-07-24T11:12:44.376Z,98356.00
2018-07-24T11:15:28.643Z,98349.00
2018-07-24T11:18:01.693Z,98368.00
2018-07-24T11:20:40.266Z,98355.00
2018-07-24T11:23:18.875Z,98357.00
2018-07-24T11:26:04.140Z,98360.00
2018-07-24T11:28:56.233Z,98349.00
2018-07-24T11:31:34.225Z,98345.00
2018-07-24T11:34:22.004Z,98334.00
2018-07-24T11:37:00.244Z,98340.00
2018-07-24T11:39:35.193Z,98333.00
2018-07-24T11:42:08.144Z,98324.00
2018-07-24T11:44:56.519Z,98316.00
2018-07-24T11:47:32.419Z,98320.00
2018-07-24T11:50:07.065Z,98321.00
2018-07-24T11:52:38.048Z,98310.00
2018-07-24T11:55:13.894Z,98317.00
2018-07-24T11:57:46.533Z,98308.00
2018-07-24T12:13:20.729Z,98302.00
2018-07-24T12:15:50.216Z,98291.00
2018-07-24T12:18:22.433Z,98300.00
2018-07-24T12:20:51.764Z,98294.00
2018-07-24T12:23:20.924Z,98290.00
2018-07-24T12:25:50.420Z,98288.00
2018-07-24T12:28:20.669Z,98293.00
2018-07-24T12:30:52.543Z,98294.00
2018-07-24T12:33:21.700Z,98299.00
2018-07-24T12:35:51.267Z,98307.00
2018-07-24T12:38:23.565Z,98303.00
2018-07-24T12:40:52.822Z,98299.00
2018-07-24T12:43:22.674Z,98290.00
2018-07-24T12:45:52.316Z,98291.00
2018-07-24T12:48:21.438Z,98287.00
2018-07-24T12:50:50.679Z,98284.00
2018-07-24T12:53:19.879Z,98287.00
2018-07-24T12:55:49.239Z,98281.00
2018-07-24T12:58:19.101Z,98276.00
2018-07-24T13:00:49.528Z,98271.00
2018-07-24T13:03:19.096Z,98271.00
2018-07-24T13:05:48.080Z,98273.00
2018-07-24T13:08:17.916Z,98264.00
2018-07-24T13:10:49.680Z,98266.00
2018-07-24T13:13:23.145Z,98258.00
2018-07-24T13:15:54.141Z,98263.00
2018-07-24T13:18:25.479Z,98261.00
2018-07-24T13:20:56.930Z,98260.00
2018-07-24T13:23:31.869Z,98254.00
2018-07-24T13:26:02.969Z,98254.00
2018-07-24T13:28:33.248Z,98250.00
2018-07-24T13:31:03.456Z,98247.00
2018-07-24T13:33:34.864Z,98253.00
2018-07-24T13:36:04.102Z,98254.00
2018-07-24T13:38:39.747Z,98253.00
2018-07-24T13:41:09.871Z,98250.00
2018-07-24T13:43:41.353Z,98241.00
2018-07-24T13:46:11.577Z,98235.00
2018-07-24T13:48:44.153Z,98244.00
2018-07-24T13:51:15.430Z,98243.00
2018-07-24T13:53:49.925Z,98238.00
2018-07-24T13:56:22.626Z,98238.00
2018-07-24T13:58:56.872Z,98240.00
2018-07-24T14:01:28.208Z,98233.00
2018-07-24T14:04:02.675Z,98235.00
2018-07-24T14:06:36.276Z,98232.00
2018-07-24T14:09:13.736Z,98234.00
2018-07-24T14:11:45.923Z,98235.00
2018-07-24T14:14:17.541Z,98233.00
2018-07-24T14:16:49.995Z,98233.00
2018-07-24T14:19:20.807Z,98237.00
2018-07-24T14:21:51.740Z,98225.00
2018-07-24T14:24:22.285Z,98227.00
2018-07-24T14:26:57.749Z,98226.00
2018-07-24T14:29:28.072Z,98223.00
2018-07-24T14:31:59.773Z,98224.00
2018-07-24T14:34:30.380Z,98221.00
2018-07-24T14:37:02.821Z,98228.00
2018-07-24T14:39:32.868Z,98225.00
2018-07-24T14:42:03.732Z,98227.00
2018-07-24T14:44:33.901Z,98224.00
2018-07-24T14:47:07.063Z,98221.00
2018-07-24T14:49:39.973Z,98218.00
2018-07-24T14:52:11.853Z,98218.00
2018-07-24T14:54:44.296Z,98218.00
2018-07-24T14:57:15.378Z,98217.00
2018-07-24T14:59:50.081Z,98226.00
2018-07-24T15:02:21.985Z,98217.00
2018-07-24T15:04:56.181Z,98213.00
2018-07-24T15:07:27.087Z,98213.00
2018-07-24T15:09:56.826Z,98210.00
2018-07-24T15:12:27.846Z,98211.00
2018-07-24T15:14:58.754Z,98211.00
2018-07-24T15:17:33.829Z,98210.00
2018-07-24T15:20:05.135Z,98214.00
2018-07-24T15:22:35.585Z,98216.00
2018-07-24T15:25:08.277Z,98209.00
2018-07-24T15:27:40.461Z,98212.00
2018-07-24T15:30:10.454Z,98208.00
2018-07-24T15:32:40.600Z,98213.00
2018-07-24T15:35:13.539Z,98213.00
2018-07-24T15:37:46.047Z,98221.00
2018-07-24T15:40:16.952Z,98218.00
2018-07-24T15:42:49.688Z,98218.00
2018-07-24T15:45:20.832Z,98214.00
2018-07-24T15:47:51.923Z,98214.00
2018-07-24T15:50:21.945Z,98210.00
2018-07-24T15:52:54.378Z,98205.00
2018-07-24T15:55:26.524Z,98198.00
2018-07-24T15:57:58.679Z,98202.00
2018-07-24T16:00:34.042Z,98198.00
2018-07-24T16:03:07.933Z,98187.00
2018-07-24T16:05:41.912Z,98188.00
2018-07-24T16:08:13.188Z,98193.00
2018-07-24T16:10:49.367Z,98194.00
2018-07-24T16:13:23.021Z,98195.00
2018-07-24T16:15:54.304Z,98194.00
2018-07-24T16:18:25.929Z,98195.00
2018-07-24T16:21:01.497Z,98192.00
2018-07-24T16:23:32.022Z,98195.00
2018-07-24T16:26:04.592Z,98196.00
2018-07-24T16:28:34.902Z,98203.00
2018-07-24T16:31:04.133Z,98205.00
2018-07-24T16:33:38.657Z,98199.00
2018-07-24T16:36:08.640Z,98203.00
2018-07-24T16:38:40.710Z,98197.00
2018-07-24T16:41:11.972Z,98199.00
2018-07-24T16:43:44.121Z,98197.00
2018-07-24T16:46:14.349Z,98202.00
2018-07-24T16:48:44.689Z,98199.00
2018-07-24T16:51:17.641Z,98198.00
2018-07-24T16:53:50.653Z,98195.00
2018-07-24T16:56:22.915Z,98198.00
2018-07-24T16:58:55.249Z,98203.00
2018-07-24T17:01:24.960Z,98207.00
2018-07-24T17:03:54.192Z,98203.00
2018-07-24T17:06:25.240Z,98200.00
2018-07-24T17:08:59.157Z,98209.00
2018-07-24T17:11:36.227Z,98201.00
2018-07-24T17:14:05.700Z,98201.00
2018-07-24T17:16:36.835Z,98205.00
2018-07-24T17:19:07.517Z,98200.00
2018-07-24T17:21:39.706Z,98199.00
2018-07-24T17:24:10.001Z,98203.00
2018-07-24T17:26:46.828Z,98203.00
2018-07-24T17:29:18.848Z,98202.00
2018-07-24T17:31:51.183Z,98199.00
2018-07-24T17:34:20.318Z,98202.00
2018-07-24T17:36:50.856Z,98199.00
2018-07-24T17:39:27.120Z,98201.00
2018-07-24T17:41:58.076Z,98204.00
2018-07-24T17:44:30.937Z,98206.00
2018-07-24T17:47:02.072Z,98213.00
2018-07-24T17:49:34.606Z,98214.00
2018-07-24T17:52:06.108Z,98210.00
2018-07-24T17:54:36.284Z,98215.00
2018-07-24T17:57:07.529Z,98220.00
2018-07-24T17:59:52.476Z,98221.00
2018-07-24T18:02:24.412Z,98222.00
2018-07-24T18:04:55.479Z,98219.00
2018-07-24T18:07:28.136Z,98224.00
2018-07-24T18:09:59.702Z,98226.00
2018-07-24T18:12:31.337Z,98225.00
2018-07-24T18:15:05.909Z,98237.00
2018-07-24T18:17:36.329Z,98233.00
2018-07-24T18:20:07.982Z,98234.00
2018-07-24T18:22:43.753Z,98236.00
2018-07-24T18:25:18.908Z,98236.00
2018-07-24T18:27:50.792Z,98237.00
2018-07-24T18:30:20.965Z,98242.00
2018-07-24T18:32:52.051Z,98241.00
2018-07-24T18:35:25.600Z,98246.00
2018-07-24T18:37:55.574Z,98243.00
2018-07-24T18:40:27.337Z,98242.00
2018-07-24T18:42:58.233Z,98246.00
2018-07-24T18:45:31.132Z,98249.00
2018-07-24T18:48:03.939Z,98249.00
2018-07-24T18:50:38.486Z,98247.00
2018-07-24T18:53:07.816Z,98252.00
2018-07-24T18:55:38.130Z,98253.00
2018-07-24T18:58:13.546Z,98255.00
2018-07-24T19:00:44.381Z,98258.00
2018-07-24T19:03:15.758Z,98255.00
2018-07-24T19:05:45.844Z,98259.00
2018-07-24T19:08:17.283Z,98257.00
2018-07-24T19:10:47.308Z,98262.00
2018-07-24T19:13:19.964Z,98265.00
2018-07-24T19:18:24.020Z,98263.00
2018-07-24T19:27:43.637Z,98278.00
2018-07-24T19:30:15.389Z,98284.00
2018-07-24T19:32:45.516Z,98287.00
2018-07-24T19:35:15.633Z,98287.00
2018-07-24T19:37:45.679Z,98290.00
2018-07-24T19:40:14.976Z,98293.00
2018-07-24T19:42:44.699Z,98295.00
2018-07-24T19:45:15.150Z,98300.00
2018-07-24T19:47:45.824Z,98305.00
2018-07-24T19:50:16.255Z,98302.00
2018-07-24T19:52:46.425Z,98309.00
2018-07-24T19:55:19.582Z,98306.00
2018-07-24T19:57:49.353Z,98312.00
2018-07-24T20:00:20.300Z,98311.00
2018-07-24T20:02:51.972Z,98313.00
2018-07-24T20:05:23.537Z,98314.00
2018-07-24T20:07:57.166Z,98317.00
2018-07-24T20:10:29.764Z,98323.00
2018-07-24T20:12:58.876Z,98326.00
2018-07-24T20:15:29.637Z,98327.00
2018-07-24T20:18:00.058Z,98330.00
2018-07-24T20:20:31.444Z,98327.00
2018-07-24T20:23:07.184Z,98328.00
2018-07-24T20:25:41.635Z,98332.00
2018-07-24T20:28:26.293Z,98332.00
2018-07-24T20:31:12.902Z,98330.00
2018-07-24T20:33:56.573Z,98328.00
2018-07-24T20:36:32.350Z,98326.00
2018-07-24T20:39:11.828Z,98333.00
2018-07-24T20:41:55.369Z,98332.00
2018-07-24T20:44:32.256Z,98331.00
2018-07-24T20:47:19.270Z,98336.00
2018-07-24T20:50:02.899Z,98332.00
2018-07-24T20:52:34.440Z,98335.00
2018-07-24T20:57:42.285Z,98333.00
2018-07-24T21:00:15.873Z,98333.00
2018-07-24T21:02:52.438Z,98338.00
2018-07-24T21:05:22.525Z,98340.00
2018-07-24T21:07:54.954Z,98337.00
2018-07-24T21:10:25.889Z,98342.00
2018-07-24T21:12:55.111Z,98343.00
2018-07-24T21:15:29.134Z,98344.00
2018-07-24T21:18:01.818Z,98348.00
2018-07-24T21:20:34.920Z,98346.00
2018-07-24T21:23:05.749Z,98346.00
2018-07-24T21:25:35.905Z,98349.00
2018-07-24T21:28:04.817Z,98350.00
2018-07-24T21:30:37.600Z,98354.00
2018-07-24T21:33:06.588Z,98354.00
2018-07-24T21:35:36.350Z,98355.00
2018-07-24T21:38:06.557Z,98355.00
2018-07-24T21:40:35.922Z,98359.00
2018-07-24T21:43:05.024Z,98360.00
2018-07-24T21:45:35.434Z,98364.00
2018-07-24T21:48:04.541Z,98367.00
2018-07-24T21:50:34.313Z,98368.00
2018-07-24T21:53:03.489Z,98371.00
2018-07-24T21:55:34.701Z,98372.00
2018-07-24T21:58:04.300Z,98370.00
2018-07-24T22:00:36.280Z,98370.00
2018-07-24T22:03:08.691Z,98368.00
2018-07-24T22:05:40.164Z,98369.00
2018-07-24T22:08:10.181Z,98369.00
2018-07-24T22:10:41.101Z,98375.00
2018-07-24T22:13:11.561Z,98374.00
2018-07-24T22:15:42.908Z,98379.00
2018-07-24T22:18:13.258Z,98375.00
2018-07-24T22:20:43.317Z,98378.00
2018-07-24T22:23:17.988Z,98382.00
2018-07-24T22:25:48.100Z,98384.00
2018-07-24T22:28:17.620Z,98385.00
2018-07-24T22:30:46.966Z,98386.00
2018-07-24T22:33:21.179Z,98387.00
2018-07-24T22:35:52.278Z,98391.00
2018-07-24T22:38:22.257Z,98390.00
2018-07-24T22:40:54.768Z,98391.00
2018-07-24T22:43:25.192Z,98392.00
2018-07-24T22:45:55.129Z,98388.00
2018-07-24T22:48:25.200Z,98391.00
2018-07-24T22:50:57.409Z,98391.00
2018-07-24T22:53:27.930Z,98386.00
2018-07-24T22:56:00.700Z,98388.00
2018-07-24T22:58:33.031Z,98392.00
2018-07-24T23:01:03.604Z,98389.00
2018-07-24T23:03:34.456Z,98387.00
2018-07-24T23:06:10.821Z,98380.00
2018-07-24T23:08:41.115Z,98387.00
2018-07-24T23:11:11.518Z,98385.00
2018-07-24T23:13:41.593Z,98389.00
2018-07-24T23:16:13.623Z,98386.00
2018-07-24T23:18:43.873Z,98394.00
2018-07-24T23:21:18.649Z,98395.00
2018-07-24T23:23:49.855Z,98398.00
2018-07-24T23:26:20.352Z,98397.00
2018-07-24T23:28:51.521Z,98395.00
2018-07-24T23:31:23.786Z,98397.00
2018-07-24T23:33:54.112Z,98400.00
2018-07-24T23:36:25.157Z,98399.00
2018-07-24T23:38:55.001Z,98398.00
2018-07-24T23:41:26.453Z,98401.00
2018-07-24T23:44:00.641Z,98402.00
2018-07-24T23:46:34.741Z,98405.00
2018-07-24T23:49:06.204Z,98404.00
2018-07-24T23:51:40.341Z,98399.00
2018-07-24T23:54:12.170Z,98401.00
2018-07-24T23:56:42.860Z,98404.00
2018-07-24T23:59:13.949Z,98400.00
